Nacogdoches, TX

3:01 PM CDT on September 04, 2015 (GMT -0500)
Mangham Regional | | Change Station
CLOSE
Current Station
Airport
Location: Nacogdoches,
Elevation: 354 ft
Nearby Weather Stations

Elev 354 ft 31.58 °N, 94.71 °W | Updated 6 minutes ago

Mostly Cloudy
Mostly Cloudy
90 °F
Feels Like 96 °F
N
15
Wind Variable Wind from South

Today
High -- | Low -- °F
--% Chance of Precip.
Yesterday
High -- | Low -- °F
Precip. -- in
6:56 AM 7:39 PM
Waning Gibbous, 56% visible
Pressure 29.93 in
Visibility 10.0 miles
Clouds Mostly Cloudy 6000 ft
Heat Index 96 °F
Dew Point 72 °F
Humidity 55%
Rainfall 0.00 in
Snow Depth Not available.
UV 5 out of 12
Pollen 9.00 out of 12
Air Quality Not available.
Flu Activity Not available.
METAR KOCH 041955Z AUTO 19013KT 10SM BKN060 32/22 A2993 RMK AO1
Pressure 29.93 in
Visibility 10.0 miles
Clouds Mostly Cloudy 6000 ft
Heat Index 96 °F
Dew Point 72 °F
Humidity 55%
Rainfall 0.00 in
Snow Depth Not available.
UV 5 out of 12
Pollen 9.00 out of 12
Air Quality Not available.
Flu Activity Not available.
METAR KOCH 041955Z AUTO 19013KT 10SM BKN060 32/22 A2993 RMK AO1
Nowcast | as of 2:37 PM CDT on September 4, 2015

Through 500 PM CDT...look for widely scattered showers and possibly an isolated thunderstorm to continue developing and moving to the north around 10 mph across parts of deep East Texas...lower Toledo Bend Lake...and lower sections of northwest Louisiana. Rainfall amounts will be less than one tenth of an inch.

×

10-Day Weather Forecast

×

Almanac

Astronomy

Sep. 04, 2015 Rise Set
Actual Time
Civil Twilight
Nautical Twilight
Astronomical Twilight
Moon
Length of Visible Light
Length of Day
Tomorrow will be .
, % of the Moon is Illuminated

Today's Extremes

State Highs State Lows

Community

WunderPhotos

Upload Photos

1,852,272 photos uploaded!

WunderBlogs® & News

Nearby

Air Quality

  Air Quality AQ Index Pollutant
Not available.

Snow Depth

Station Depth Elevation

Earthquake Activity

City Distance Mag. Time & Date
Minimum magnitude displayed is 2.5.

Coastal Water Temperatures

Place Temperature

Stations

Nearby Weather Stations

Station Location Temp. Windchill Dew Point Humidity Wind Precip. Elev Updated Type